Terminal Aerodrome Forecast
Issued by NWS

Home | Current Version | Previous Version | Text Only | Print | Product List | Glossary On
Versions: 1 2 3 4 5 6 7 8 9 10 11 12 13 14 15 16 17 18 19
733
FTUS41 KPBZ 110532
TAFBVI
TAF
KBVI 110532Z 1106/1206 20003KT P6SM SCT035 OVC080
     FM111000 17003KT 3SM -SN OVC025
      TEMPO 1111/1115 2SM -SN OVC015
     FM120100 14007KT 5SM -RASN OVC025
     FM120300 19008KT 3SM -RASN OVC015
      AMD NOT SKED=

USA.gov is the U.S. government's official web portal to all federal, state and local government web resources and services.